Time;durP1;ratioP1;P1;durP2;ratioP2;P2;SDS_P1;SDS_P2;PMS_P1;PMS_P2;Temp;Humidity;BMP_temperature;BMP_pressure;BME280_temperature;BME280_humidity;BME280_pressure;Samples;Min_cycle;Max_cycle;Signal;HPM_P1;HPM_P2
2023/06/14 00:00:40;;;;;;;4.80;4.10;;;17.80;81.10;;;;;;5015635;28;20585;-51
2023/06/14 00:03:09;;;;;;;4.70;4.18;;;17.80;81.10;;;;;;5016018;28;20113;-51
2023/06/14 00:05:40;;;;;;;5.68;4.10;;;17.80;81.10;;;;;;5015868;28;20025;-50
2023/06/14 00:08:07;;;;;;;5.80;4.20;;;17.80;81.20;;;;;;5018102;28;20054;-51
2023/06/14 00:10:35;;;;;;;5.43;3.78;;;17.80;81.30;;;;;;5019919;28;20034;-48
2023/06/14 00:13:01;;;;;;;5.50;4.45;;;17.80;81.30;;;;;;5020454;28;20166;-51
2023/06/14 00:15:27;;;;;;;5.10;4.38;;;17.70;81.40;;;;;;5020044;28;20026;-51
2023/06/14 00:17:54;;;;;;;4.95;4.10;;;17.70;81.40;;;;;;5020113;28;20033;-51
2023/06/14 00:20:20;;;;;;;4.63;4.00;;;17.70;81.40;;;;;;5020111;28;20080;-51
2023/06/14 00:22:46;;;;;;;5.00;4.22;;;17.70;81.40;;;;;;5020871;28;20033;-52
2023/06/14 00:25:12;;;;;;;5.20;4.55;;;17.70;81.20;;;;;;5020265;28;20027;-51
2023/06/14 00:27:37;;;;;;;5.10;3.92;;;17.70;81.30;;;;;;5019822;28;20030;-48
2023/06/14 00:30:03;;;;;;;4.95;3.85;;;17.60;81.20;;;;;;5019565;28;20026;-51
2023/06/14 00:32:29;;;;;;;6.25;4.35;;;17.60;81.40;;;;;;5019687;28;20493;-51
2023/06/14 00:34:55;;;;;;;5.10;4.57;;;17.60;81.40;;;;;;5020331;28;20022;-51
2023/06/14 00:37:21;;;;;;;7.70;4.32;;;17.60;81.40;;;;;;5020383;28;20030;-52
2023/06/14 00:39:47;;;;;;;5.07;4.07;;;17.60;81.20;;;;;;5019098;28;20032;-51
2023/06/14 00:42:24;;;;;;;6.05;4.30;;;17.60;81.20;;;;;;5019600;28;20493;-47
2023/06/14 00:44:49;;;;;;;5.72;4.05;;;17.60;81.40;;;;;;5019725;28;20030;-52
2023/06/14 00:47:15;;;;;;;6.18;4.13;;;17.60;81.40;;;;;;5018730;28;20030;-51
2023/06/14 00:49:41;;;;;;;5.15;4.50;;;17.60;81.40;;;;;;5019956;28;20201;-51
2023/06/14 00:52:07;;;;;;;4.25;3.85;;;17.60;81.40;;;;;;5020144;28;20034;-51
2023/06/14 00:54:33;;;;;;;5.72;4.00;;;17.60;81.40;;;;;;5019695;28;20034;-51
2023/06/14 00:56:58;;;;;;;4.70;4.20;;;17.60;81.40;;;;;;5019916;28;20492;-49
2023/06/14 00:59:25;;;;;;;5.13;4.28;;;17.50;81.20;;;;;;5019254;28;20534;-51
2023/06/14 01:01:50;;;;;;;4.55;4.15;;;17.50;81.20;;;;;;5019225;28;20026;-50
2023/06/14 01:04:16;;;;;;;5.53;4.53;;;17.50;81.30;;;;;;5019681;28;20040;-51
2023/06/14 01:06:51;;;;;;;5.05;4.43;;;17.50;81.30;;;;;;5019229;28;20040;-52
2023/06/14 01:09:20;;;;;;;5.03;3.95;;;17.50;81.20;;;;;;5019185;28;20034;-52
2023/06/14 01:12:04;;;;;;;6.50;4.30;;;17.50;81.10;;;;;;5019699;28;20030;-53
2023/06/14 01:14:32;;;;;;;5.72;4.03;;;17.50;81.30;;;;;;5018764;28;20088;-53
2023/06/14 01:17:00;;;;;;;5.22;4.57;;;17.50;81.30;;;;;;5019489;28;20413;-52
2023/06/14 01:19:27;;;;;;;6.05;4.10;;;17.50;81.50;;;;;;5019117;28;20038;-51
2023/06/14 01:21:57;;;;;;;6.30;4.70;;;17.50;81.50;;;;;;5019521;28;20529;-50
2023/06/14 01:24:25;;;;;;;5.35;4.47;;;17.50;81.70;;;;;;5019723;28;20390;-49
2023/06/14 01:26:55;;;;;;;5.00;4.50;;;17.50;81.60;;;;;;5020066;28;20041;-51
2023/06/14 01:29:23;;;;;;;5.80;4.60;;;17.50;81.70;;;;;;5019861;28;20026;-51
2023/06/14 01:31:49;;;;;;;4.45;4.05;;;17.50;82.00;;;;;;5019588;28;20044;-49
2023/06/14 01:34:16;;;;;;;5.65;4.43;;;17.60;81.90;;;;;;5019637;28;20044;-51
2023/06/14 01:36:44;;;;;;;6.22;4.55;;;17.50;81.60;;;;;;5020018;28;20105;-51
2023/06/14 01:39:13;;;;;;;4.60;4.18;;;17.50;81.80;;;;;;5019831;28;20049;-51
2023/06/14 01:41:40;;;;;;;6.97;4.63;;;17.50;81.60;;;;;;5019429;28;20030;-52
2023/06/14 01:44:06;;;;;;;5.45;4.07;;;17.50;81.60;;;;;;5019320;28;20086;-51
2023/06/14 01:46:32;;;;;;;5.68;4.82;;;17.50;81.60;;;;;;5018807;28;20033;-51
2023/06/14 01:48:59;;;;;;;5.50;4.32;;;17.50;81.60;;;;;;5019719;28;20036;-50
2023/06/14 01:51:24;;;;;;;6.55;4.25;;;17.50;81.70;;;;;;5019383;28;20018;-50
2023/06/14 01:53:50;;;;;;;7.13;4.40;;;17.50;81.80;;;;;;5019789;28;20029;-48
2023/06/14 01:56:16;;;;;;;7.10;5.38;;;17.50;81.90;;;;;;5018927;28;20366;-50
2023/06/14 01:58:42;;;;;;;5.93;4.38;;;17.50;82.10;;;;;;5019581;28;20014;-52
2023/06/14 02:01:08;;;;;;;5.00;4.50;;;17.50;82.30;;;;;;5018639;28;20439;-51
2023/06/14 02:03:34;;;;;;;5.10;4.53;;;17.50;82.30;;;;;;5019188;28;20109;-52
2023/06/14 02:06:00;;;;;;;4.65;4.15;;;17.50;82.60;;;;;;5019200;28;20062;-51
2023/06/14 02:08:25;;;;;;;6.70;4.72;;;17.50;82.50;;;;;;5018899;28;20504;-52
2023/06/14 02:10:51;;;;;;;5.47;4.60;;;17.50;82.50;;;;;;5019104;28;20533;-50
2023/06/14 02:13:17;;;;;;;6.05;4.43;;;17.50;82.30;;;;;;5018562;28;20057;-50
2023/06/14 02:15:43;;;;;;;6.50;4.90;;;17.50;82.30;;;;;;5019093;28;20474;-51
2023/06/14 02:18:09;;;;;;;5.22;4.15;;;17.50;83.00;;;;;;5018645;28;20022;-52
2023/06/14 02:20:35;;;;;;;8.95;4.85;;;17.50;82.30;;;;;;5018604;28;20389;-51
2023/06/14 02:23:02;;;;;;;8.05;4.65;;;17.50;82.30;;;;;;5018629;28;20025;-50
2023/06/14 02:25:28;;;;;;;6.25;4.30;;;17.50;82.30;;;;;;5018815;28;20037;-49
2023/06/14 02:27:55;;;;;;;5.25;4.60;;;17.50;82.30;;;;;;5019339;28;20481;-49
2023/06/14 02:30:21;;;;;;;5.90;4.85;;;17.50;82.30;;;;;;5017830;28;20031;-49
2023/06/14 02:32:48;;;;;;;10.90;5.38;;;17.50;83.10;;;;;;5018584;28;20388;-50
2023/06/14 02:35:14;;;;;;;5.20;4.57;;;17.50;82.50;;;;;;5018832;28;20022;-52
2023/06/14 02:37:40;;;;;;;5.28;4.78;;;17.50;82.50;;;;;;5018984;28;20056;-51
2023/06/14 02:40:06;;;;;;;5.22;4.43;;;17.50;82.50;;;;;;5018198;28;20026;-52
2023/06/14 02:42:32;;;;;;;5.72;4.38;;;17.50;82.40;;;;;;5017887;28;20471;-51
2023/06/14 02:44:58;;;;;;;6.35;4.72;;;17.60;82.50;;;;;;5018441;28;20057;-50
2023/06/14 02:47:24;;;;;;;7.25;4.68;;;17.60;82.50;;;;;;5018300;28;20112;-49
2023/06/14 02:49:50;;;;;;;7.07;5.20;;;17.60;82.50;;;;;;5018213;28;20040;-52
2023/06/14 02:52:16;;;;;;;6.05;4.55;;;17.60;82.40;;;;;;5017840;28;20113;-49
2023/06/14 02:54:41;;;;;;;5.03;4.47;;;17.70;82.50;;;;;;5016972;28;20033;-49
2023/06/14 02:57:07;;;;;;;6.43;4.63;;;17.70;82.40;;;;;;5017353;28;20034;-52
2023/06/14 02:59:35;;;;;;;6.45;4.88;;;17.70;82.40;;;;;;5017215;28;20022;-47
2023/06/14 03:02:00;;;;;;;6.50;4.97;;;17.70;82.30;;;;;;5017477;28;20047;-51
2023/06/14 03:04:26;;;;;;;7.47;4.75;;;17.80;82.50;;;;;;5017379;28;20455;-49
2023/06/14 03:06:53;;;;;;;6.70;4.88;;;17.80;82.60;;;;;;5016980;28;20385;-50
2023/06/14 03:09:20;;;;;;;5.55;4.55;;;17.80;82.50;;;;;;5016663;28;20021;-50
2023/06/14 03:11:45;;;;;;;5.32;4.60;;;17.90;82.60;;;;;;5017195;28;20049;-49
2023/06/14 03:14:13;;;;;;;5.75;5.07;;;17.90;82.50;;;;;;5017152;28;20128;-52
2023/06/14 03:16:41;;;;;;;7.10;5.53;;;18.00;82.10;;;;;;5015392;28;20018;-49
2023/06/14 03:19:06;;;;;;;5.95;5.35;;;18.00;82.10;;;;;;5015936;28;20029;-52
2023/06/14 03:21:34;;;;;;;5.53;4.80;;;18.10;82.10;;;;;;5016611;28;20469;-47
2023/06/14 03:24:00;;;;;;;7.82;4.82;;;18.10;81.80;;;;;;5015778;28;20098;-52
2023/06/14 03:26:25;;;;;;;6.40;5.10;;;18.30;81.70;;;;;;5016389;28;20038;-50
2023/06/14 03:28:51;;;;;;;7.30;5.03;;;18.40;81.60;;;;;;5016056;28;20038;-50
2023/06/14 03:31:17;;;;;;;7.30;4.75;;;18.50;81.50;;;;;;5016237;28;20091;-51
2023/06/14 03:33:43;;;;;;;5.88;4.90;;;18.60;81.80;;;;;;5016556;28;20030;-50
2023/06/14 03:36:08;;;;;;;7.63;4.97;;;18.90;82.00;;;;;;5018965;28;20382;-51
2023/06/14 03:38:34;;;;;;;7.15;5.20;;;19.30;82.30;;;;;;5019743;28;20030;-51
2023/06/14 03:41:00;;;;;;;5.85;4.40;;;19.80;80.90;;;;;;5014846;28;20052;-52
2023/06/14 03:43:26;;;;;;;5.70;4.43;;;20.40;79.40;;;;;;5011974;28;20057;-50
2023/06/14 03:45:52;;;;;;;8.10;5.07;;;21.00;78.00;;;;;;5014186;28;20109;-51
2023/06/14 03:48:18;;;;;;;5.68;4.63;;;21.60;76.10;;;;;;5013575;28;20061;-52
2023/06/14 03:50:44;;;;;;;7.05;4.22;;;22.40;74.30;;;;;;5012279;28;20046;-54
2023/06/14 03:53:10;;;;;;;4.97;4.20;;;23.10;72.60;;;;;;5013652;28;20034;-51
2023/06/14 03:55:37;;;;;;;8.00;4.90;;;23.90;70.80;;;;;;5015928;28;20048;-49
2023/06/14 03:58:03;;;;;;;5.38;4.07;;;24.50;68.80;;;;;;5020793;28;20077;-51
2023/06/14 04:00:29;;;;;;;5.38;4.45;;;25.20;67.20;;;;;;5018427;28;20062;-54
2023/06/14 04:02:55;;;;;;;5.00;4.18;;;25.70;65.70;;;;;;5020035;28;20037;-51
2023/06/14 04:05:21;;;;;;;5.60;4.05;;;26.20;64.40;;;;;;5018847;28;20462;-52
2023/06/14 04:07:48;;;;;;;5.38;3.53;;;26.70;63.40;;;;;;5016862;28;20032;-52
2023/06/14 04:10:15;;;;;;;5.25;3.65;;;27.10;62.30;;;;;;5016381;28;20048;-53
2023/06/14 04:12:41;;;;;;;4.05;3.50;;;27.40;61.30;;;;;;5016855;28;20462;-51
2023/06/14 04:15:11;;;;;;;4.88;3.33;;;27.70;60.70;;;;;;5017068;28;20060;-52
2023/06/14 04:17:38;;;;;;;5.45;4.05;;;27.90;60.00;;;;;;5017200;28;20022;-51
2023/06/14 04:20:05;;;;;;;6.15;3.50;;;28.30;59.50;;;;;;5017611;28;20028;-53
2023/06/14 04:22:32;;;;;;;7.00;4.00;;;28.60;58.90;;;;;;5017835;28;20037;-53
2023/06/14 04:24:59;;;;;;;5.28;3.47;;;28.80;58.00;;;;;;5018810;28;20433;-52
2023/06/14 04:27:25;;;;;;;4.47;3.58;;;29.00;57.40;;;;;;5018771;28;20095;-53
2023/06/14 04:29:59;;;;;;;3.63;3.33;;;29.30;57.00;;;;;;5018535;28;20030;-53
2023/06/14 04:32:26;;;;;;;4.70;4.10;;;29.50;56.50;;;;;;5018783;28;20386;-53
2023/06/14 04:34:55;;;;;;;4.28;3.55;;;29.60;55.80;;;;;;5017436;28;20034;-52
2023/06/14 04:37:21;;;;;;;5.73;3.60;;;29.90;55.30;;;;;;5016834;28;20061;-52
2023/06/14 04:39:48;;;;;;;6.60;3.55;;;30.10;55.40;;;;;;5015202;28;20040;-52
2023/06/14 04:42:16;;;;;;;4.47;3.47;;;30.40;54.80;;;;;;5014664;28;20034;-53
2023/06/14 04:44:43;;;;;;;4.50;3.58;;;30.70;54.40;;;;;;5014545;28;20493;-52
2023/06/14 04:47:09;;;;;;;4.80;3.70;;;31.00;53.60;;;;;;5015748;28;20025;-53
2023/06/14 04:49:35;;;;;;;4.93;3.28;;;31.30;53.20;;;;;;5015232;28;20037;-55
2023/06/14 04:52:01;;;;;;;3.95;3.38;;;31.50;53.00;;;;;;5015543;28;20021;-53
2023/06/14 04:54:27;;;;;;;5.03;3.47;;;31.80;52.60;;;;;;5018716;28;20022;-53
2023/06/14 04:56:55;;;;;;;5.75;3.45;;;32.00;52.10;;;;;;5019402;28;20375;-53
2023/06/14 04:59:22;;;;;;;4.88;3.78;;;32.30;51.70;;;;;;5018625;28;20026;-54
2023/06/14 05:01:49;;;;;;;5.82;3.28;;;32.60;51.50;;;;;;5016635;28;20033;-54
2023/06/14 05:04:16;;;;;;;4.57;3.50;;;32.80;50.80;;;;;;5016570;28;20029;-52
2023/06/14 05:06:44;;;;;;;5.25;4.10;;;32.90;50.30;;;;;;5016682;28;20030;-49
2023/06/14 05:09:11;;;;;;;3.95;3.50;;;33.00;49.70;;;;;;5017114;28;20064;-55
2023/06/14 05:11:37;;;;;;;4.85;3.78;;;33.00;49.60;;;;;;5019437;28;20026;-53
2023/06/14 05:14:02;;;;;;;4.38;3.60;;;32.80;49.30;;;;;;5019896;28;20133;-51
2023/06/14 05:16:29;;;;;;;4.38;3.40;;;32.50;49.10;;;;;;5018360;28;20088;-52
2023/06/14 05:18:55;;;;;;;3.88;3.40;;;32.10;49.20;;;;;;5019741;28;20037;-53
2023/06/14 05:21:21;;;;;;;6.35;3.90;;;31.60;49.20;;;;;;5018546;28;20017;-49
2023/06/14 05:23:47;;;;;;;6.22;3.78;;;31.00;49.60;;;;;;5016982;28;20026;-53
2023/06/14 05:26:12;;;;;;;6.78;3.95;;;30.30;50.00;;;;;;5018240;28;20037;-51
2023/06/14 05:28:38;;;;;;;4.85;3.97;;;29.50;50.70;;;;;;5019723;28;20029;-54
2023/06/14 05:31:04;;;;;;;5.50;4.03;;;28.70;51.60;;;;;;5020007;28;20048;-52
2023/06/14 05:33:29;;;;;;;6.28;4.40;;;28.00;52.60;;;;;;5018560;28;20037;-52
2023/06/14 05:35:55;;;;;;;5.38;3.95;;;27.40;53.50;;;;;;5018788;28;20030;-51
2023/06/14 05:38:21;;;;;;;6.15;4.22;;;26.90;54.30;;;;;;5019349;28;20094;-52
2023/06/14 05:40:47;;;;;;;6.70;4.38;;;26.40;55.00;;;;;;5019276;28;20109;-53
2023/06/14 05:43:12;;;;;;;6.88;4.68;;;26.00;55.70;;;;;;5021119;28;20025;-50
2023/06/14 05:45:38;;;;;;;5.47;3.80;;;25.70;56.40;;;;;;5017300;28;20488;-51
2023/06/14 05:48:04;;;;;;;5.75;4.28;;;25.50;57.00;;;;;;5019248;28;20060;-49
2023/06/14 05:50:30;;;;;;;5.90;4.05;;;25.30;57.40;;;;;;5020987;28;20056;-51
2023/06/14 05:52:56;;;;;;;4.97;3.92;;;25.10;57.90;;;;;;5020366;28;20029;-50
2023/06/14 05:55:21;;;;;;;5.55;4.47;;;25.00;58.70;;;;;;5020529;28;20072;-51
2023/06/14 05:57:48;;;;;;;5.10;4.20;;;24.80;58.50;;;;;;5020110;28;20026;-48
2023/06/14 06:00:15;;;;;;;5.75;4.40;;;24.70;59.00;;;;;;5019412;28;20507;-52
2023/06/14 06:02:45;;;;;;;5.60;4.50;;;24.60;59.40;;;;;;5021559;28;20025;-50
2023/06/14 06:05:12;;;;;;;5.53;4.20;;;24.50;59.60;;;;;;5019678;28;20060;-50
2023/06/14 06:07:37;;;;;;;4.72;4.05;;;24.40;60.00;;;;;;5019870;28;20080;-50
2023/06/14 06:10:04;;;;;;;6.45;3.92;;;24.40;60.40;;;;;;5021018;28;20026;-50
2023/06/14 06:12:30;;;;;;;8.15;4.13;;;24.30;60.60;;;;;;5021092;28;20497;-51
2023/06/14 06:14:56;;;;;;;5.50;4.43;;;24.30;60.90;;;;;;5020235;28;20050;-50
2023/06/14 06:17:21;;;;;;;4.93;4.30;;;24.20;61.10;;;;;;5013482;28;20113;-51
2023/06/14 06:19:47;;;;;;;5.38;3.72;;;24.10;61.40;;;;;;5021557;28;20022;-47
2023/06/14 06:22:13;;;;;;;5.45;3.85;;;24.10;61.50;;;;;;5009497;28;20085;-49
2023/06/14 06:24:38;;;;;;;4.70;4.15;;;24.00;61.70;;;;;;5011702;28;20077;-52
2023/06/14 06:27:04;;;;;;;6.57;4.40;;;24.00;62.00;;;;;;5013137;28;20037;-50
2023/06/14 06:29:30;;;;;;;5.45;4.35;;;23.90;62.10;;;;;;5011165;28;20037;-51
2023/06/14 06:31:56;;;;;;;5.95;4.05;;;23.80;62.40;;;;;;5019378;28;20030;-52
2023/06/14 06:34:22;;;;;;;12.43;5.30;;;23.80;62.80;;;;;;5016695;28;20036;-50
2023/06/14 06:36:48;;;;;;;5.55;4.30;;;23.80;63.00;;;;;;5021365;28;20021;-51
2023/06/14 06:39:15;;;;;;;5.05;4.20;;;23.80;63.20;;;;;;5017291;28;20030;-53
2023/06/14 06:41:40;;;;;;;5.60;4.75;;;23.80;63.30;;;;;;5003846;28;20371;-50
2023/06/14 06:44:07;;;;;;;6.18;4.28;;;23.70;63.20;;;;;;5012058;28;20041;-52
2023/06/14 06:46:34;;;;;;;5.25;4.40;;;23.70;63.40;;;;;;5012261;28;20037;-49
2023/06/14 06:49:00;;;;;;;7.10;5.05;;;23.60;63.50;;;;;;5017084;28;20022;-48
2023/06/14 06:51:26;;;;;;;6.65;4.40;;;23.60;63.60;;;;;;5014315;28;20045;-53
2023/06/14 06:53:55;;;;;;;5.57;4.60;;;23.50;63.70;;;;;;5010886;28;20061;-51
2023/06/14 06:56:23;;;;;;;6.88;5.00;;;23.50;63.90;;;;;;5013495;28;20412;-50
2023/06/14 06:58:51;;;;;;;6.65;4.93;;;23.50;64.50;;;;;;5015838;28;20105;-48
2023/06/14 07:01:19;;;;;;;7.20;4.85;;;23.50;64.50;;;;;;5013456;28;20034;-50
2023/06/14 07:03:45;;;;;;;6.13;4.78;;;23.50;64.70;;;;;;5010209;28;20030;-51
2023/06/14 07:06:11;;;;;;;6.57;5.03;;;23.50;64.80;;;;;;5007586;28;20034;-52
2023/06/14 07:08:38;;;;;;;4.95;4.45;;;23.50;64.90;;;;;;5004358;28;20022;-51
2023/06/14 07:11:04;;;;;;;6.78;4.70;;;23.60;64.70;;;;;;5007658;28;20172;-50
2023/06/14 07:13:30;;;;;;;5.00;4.50;;;23.60;64.90;;;;;;5005267;28;20046;-50
2023/06/14 07:15:59;;;;;;;7.22;4.57;;;23.60;64.90;;;;;;5004479;28;20022;-51
2023/06/14 07:18:25;;;;;;;6.85;4.82;;;23.60;65.00;;;;;;4997171;28;20046;-53
2023/06/14 07:20:51;;;;;;;6.10;5.00;;;23.60;64.80;;;;;;4999942;28;20440;-52
2023/06/14 07:23:17;;;;;;;5.18;4.57;;;23.60;64.80;;;;;;5009934;28;20037;-49
2023/06/14 07:25:43;;;;;;;6.07;4.80;;;23.60;65.00;;;;;;5003299;28;20640;-50
2023/06/14 07:28:08;;;;;;;6.35;4.70;;;23.60;65.30;;;;;;5005957;28;20070;-51
2023/06/14 07:30:35;;;;;;;6.82;4.63;;;23.70;65.10;;;;;;5010814;28;20121;-47
2023/06/14 07:33:00;;;;;;;7.05;5.10;;;23.70;65.10;;;;;;5009628;28;20029;-50
2023/06/14 07:35:26;;;;;;;6.57;4.70;;;23.70;65.20;;;;;;5009251;28;20468;-50
2023/06/14 07:37:52;;;;;;;6.00;4.57;;;23.80;65.50;;;;;;5006427;28;20659;-50
2023/06/14 07:40:18;;;;;;;7.60;5.03;;;23.80;65.30;;;;;;5008447;28;20037;-52
2023/06/14 07:42:43;;;;;;;6.47;5.00;;;23.80;65.20;;;;;;5016489;28;20046;-50
2023/06/14 07:45:09;;;;;;;6.78;5.38;;;23.80;64.90;;;;;;5014367;28;21051;-51
2023/06/14 07:47:35;;;;;;;6.47;5.35;;;23.90;64.90;;;;;;5006371;28;20023;-52
2023/06/14 07:50:01;;;;;;;7.07;5.28;;;23.80;65.20;;;;;;5010309;28;20145;-47
2023/06/14 07:52:26;;;;;;;6.40;5.32;;;23.90;65.20;;;;;;5013969;28;20041;-53
2023/06/14 07:54:52;;;;;;;5.38;4.55;;;23.90;65.20;;;;;;5016659;28;20044;-52
2023/06/14 07:57:20;;;;;;;5.25;4.72;;;23.90;65.40;;;;;;5016719;28;20053;-50
2023/06/14 07:59:46;;;;;;;7.05;5.13;;;23.80;65.30;;;;;;5010568;28;20039;-49
2023/06/14 08:02:11;;;;;;;7.55;5.40;;;23.80;65.40;;;;;;5004856;28;20035;-52
2023/06/14 08:04:37;;;;;;;6.00;4.72;;;23.80;65.60;;;;;;5011106;28;20022;-49
2023/06/14 08:07:03;;;;;;;8.60;5.38;;;23.80;65.70;;;;;;5000091;28;20435;-48
2023/06/14 08:09:29;;;;;;;6.75;4.88;;;23.80;65.80;;;;;;5013014;28;20058;-50
2023/06/14 08:11:56;;;;;;;6.50;4.97;;;23.80;65.90;;;;;;5020012;28;20049;-45
2023/06/14 08:14:22;;;;;;;8.48;5.35;;;23.70;66.20;;;;;;5013799;28;20042;-48
2023/06/14 08:16:47;;;;;;;5.60;4.85;;;23.70;66.50;;;;;;5014385;28;20758;-50
2023/06/14 08:19:13;;;;;;;5.32;4.82;;;23.70;66.60;;;;;;5012071;28;20053;-50
2023/06/14 08:21:39;;;;;;;7.80;4.75;;;23.80;66.60;;;;;;5006362;28;20014;-50
2023/06/14 08:24:05;;;;;;;6.75;5.00;;;23.80;66.50;;;;;;5015338;28;20097;-54
2023/06/14 08:26:31;;;;;;;6.30;4.82;;;23.80;66.50;;;;;;5024450;28;20037;-49
2023/06/14 08:28:57;;;;;;;7.32;4.70;;;23.90;66.60;;;;;;5022759;28;20026;-48
2023/06/14 08:31:25;;;;;;;5.93;5.30;;;23.90;66.60;;;;;;5022240;28;20030;-49
2023/06/14 08:43:58;;;;;;;5.80;4.60;;;24.10;66.30;;;;;;5025162;28;20025;-49
2023/06/14 08:46:27;;;;;;;5.35;4.40;;;24.10;66.30;;;;;;5025258;28;20040;-51
2023/06/14 08:48:58;;;;;;;4.53;4.13;;;24.20;66.40;;;;;;5010217;28;20034;-52
2023/06/14 08:51:26;;;;;;;5.22;4.38;;;24.20;66.30;;;;;;5019492;28;20037;-49
2023/06/14 08:53:57;;;;;;;5.07;4.40;;;24.20;66.00;;;;;;5008693;28;21724;-49
2023/06/14 08:56:28;;;;;;;4.95;4.05;;;24.20;66.10;;;;;;5023536;28;20017;-50
2023/06/14 08:58:56;;;;;;;6.15;4.55;;;24.30;66.20;;;;;;5023964;28;20018;-49
2023/06/14 09:01:23;;;;;;;4.60;3.97;;;24.30;66.10;;;;;;5020110;28;20022;-49
2023/06/14 09:03:49;;;;;;;5.35;4.38;;;24.20;66.00;;;;;;5016442;28;20035;-49
2023/06/14 09:06:15;;;;;;;5.78;4.43;;;24.20;66.10;;;;;;5020701;28;21032;-46
2023/06/14 09:08:45;;;;;;;6.78;4.55;;;24.30;66.10;;;;;;5020569;28;21127;-50
2023/06/14 09:11:14;;;;;;;8.27;4.38;;;24.20;65.90;;;;;;5022919;28;20351;-50
2023/06/14 09:13:41;;;;;;;6.88;4.22;;;24.20;65.90;;;;;;5017971;28;20042;-49
2023/06/14 09:16:07;;;;;;;5.78;4.70;;;24.10;65.90;;;;;;5022363;28;20029;-49
2023/06/14 09:18:44;;;;;;;6.63;4.55;;;24.10;66.20;;;;;;5026746;28;20027;-50
2023/06/14 09:21:11;;;;;;;11.60;4.78;;;24.10;66.30;;;;;;5007191;28;20049;-48
2023/06/14 09:23:41;;;;;;;6.20;3.90;;;24.10;66.40;;;;;;5011111;28;20034;-48
2023/06/14 09:26:15;;;;;;;6.45;4.28;;;24.10;66.30;;;;;;5014801;28;23801;-48
2023/06/14 09:28:44;;;;;;;6.90;4.57;;;24.10;66.30;;;;;;5014005;28;20033;-46
2023/06/14 09:31:11;;;;;;;6.40;4.15;;;24.10;66.10;;;;;;5014697;28;20474;-48
2023/06/14 09:33:37;;;;;;;7.25;3.90;;;24.10;66.30;;;;;;5019334;28;20033;-49
2023/06/14 09:36:04;;;;;;;5.22;3.92;;;24.10;66.30;;;;;;5016629;28;20025;-47
2023/06/14 09:38:30;;;;;;;7.40;4.00;;;24.10;66.20;;;;;;5015235;28;20059;-50
2023/06/14 09:40:58;;;;;;;5.25;3.72;;;24.10;66.20;;;;;;5015347;28;20030;-48
2023/06/14 09:43:26;;;;;;;6.30;4.07;;;24.10;66.00;;;;;;5015108;28;20101;-49
2023/06/14 09:45:53;;;;;;;6.35;3.95;;;24.10;65.80;;;;;;5017473;28;20964;-50
2023/06/14 09:48:20;;;;;;;5.45;3.60;;;24.10;65.90;;;;;;5021543;28;20026;-48
2023/06/14 09:50:49;;;;;;;8.00;4.05;;;24.10;65.80;;;;;;5015534;28;20026;-50
2023/06/14 09:53:16;;;;;;;5.90;3.70;;;24.10;65.70;;;;;;5019453;28;20030;-51
2023/06/14 09:55:42;;;;;;;5.53;4.25;;;24.10;65.60;;;;;;5018765;28;20036;-50
2023/06/14 09:58:11;;;;;;;6.88;3.88;;;24.10;65.50;;;;;;5009256;28;20496;-49
2023/06/14 10:00:38;;;;;;;4.20;3.65;;;24.20;65.90;;;;;;5008732;28;20022;-50
2023/06/14 10:03:16;;;;;;;4.40;3.22;;;24.20;65.80;;;;;;5007577;28;20508;-50
2023/06/14 10:05:46;;;;;;;4.50;3.42;;;24.20;65.10;;;;;;5006618;28;20193;-52
2023/06/14 10:08:18;;;;;;;4.72;3.50;;;24.20;64.70;;;;;;5012825;28;21571;-50
2023/06/14 10:10:44;;;;;;;6.63;3.08;;;24.20;65.00;;;;;;5017293;28;20062;-50
2023/06/14 10:13:11;;;;;;;7.20;3.75;;;24.20;65.30;;;;;;5017737;28;20179;-51
2023/06/14 10:16:09;;;;;;;4.97;3.45;;;24.30;65.30;;;;;;5020430;28;20076;-50
2023/06/14 10:18:53;;;;;;;4.22;3.72;;;24.30;65.30;;;;;;5013794;28;20038;-48
2023/06/14 10:21:57;;;;;;;5.80;3.40;;;24.30;65.40;;;;;;5007396;28;20556;-51
2023/06/14 10:24:33;;;;;;;5.18;3.15;;;24.40;65.50;;;;;;5011646;28;20117;-48
2023/06/14 10:27:00;;;;;;;5.10;3.42;;;24.40;65.50;;;;;;5011912;28;20030;-51
2023/06/14 10:29:31;;;;;;;4.97;3.80;;;24.50;65.40;;;;;;5010605;28;20042;-49
2023/06/14 10:31:59;;;;;;;5.65;3.35;;;24.50;64.90;;;;;;5014384;28;20172;-50
2023/06/14 10:34:26;;;;;;;4.47;3.47;;;24.50;64.40;;;;;;5011841;28;20991;-52
2023/06/14 10:37:06;;;;;;;3.58;3.20;;;24.60;64.40;;;;;;5014309;28;20025;-48
2023/06/14 10:39:38;;;;;;;5.65;3.45;;;24.60;64.80;;;;;;5018946;28;20034;-48
2023/06/14 10:42:06;;;;;;;7.10;3.78;;;24.60;64.80;;;;;;5019282;28;20038;-49
2023/06/14 10:44:40;;;;;;;3.97;3.05;;;24.70;64.80;;;;;;5015331;28;20429;-51
2023/06/14 10:47:29;;;;;;;6.80;3.70;;;24.70;64.60;;;;;;5003735;28;20034;-52
2023/06/14 10:50:08;;;;;;;7.20;3.88;;;24.80;64.80;;;;;;5002920;28;20057;-49
2023/06/14 10:52:38;;;;;;;3.72;3.20;;;24.80;64.50;;;;;;5007269;28;20030;-48
2023/06/14 10:55:10;;;;;;;4.38;3.30;;;24.80;64.60;;;;;;5007267;28;20030;-50
2023/06/14 10:57:38;;;;;;;3.65;3.17;;;24.70;64.40;;;;;;5011833;28;20022;-50
2023/06/14 11:00:20;;;;;;;6.55;3.13;;;24.80;64.10;;;;;;4999599;28;20476;-50
2023/06/14 11:03:10;;;;;;;4.70;3.78;;;24.80;64.10;;;;;;5004223;28;20491;-50
2023/06/14 11:05:52;;;;;;;6.10;3.35;;;24.80;64.10;;;;;;5009503;28;20524;-49
2023/06/14 11:08:26;;;;;;;3.95;3.05;;;24.80;64.10;;;;;;5009304;28;20018;-45
2023/06/14 11:11:00;;;;;;;4.75;3.80;;;24.80;64.10;;;;;;5009849;28;20037;-46
2023/06/14 11:13:26;;;;;;;5.60;3.67;;;24.80;64.10;;;;;;5008672;28;20046;-50
2023/06/14 11:15:57;;;;;;;7.10;3.20;;;24.70;64.00;;;;;;5006821;28;20037;-51
2023/06/14 11:18:27;;;;;;;3.70;2.97;;;24.70;63.50;;;;;;5001990;28;20474;-50
2023/06/14 11:20:53;;;;;;;5.97;3.60;;;24.70;63.50;;;;;;5002564;28;20482;-47
2023/06/14 11:23:19;;;;;;;5.18;3.30;;;24.70;63.50;;;;;;5004682;28;20120;-45
2023/06/14 11:25:50;;;;;;;5.68;3.10;;;24.60;63.30;;;;;;5003886;28;20061;-47
2023/06/14 11:28:16;;;;;;;6.35;3.38;;;24.70;63.30;;;;;;5000563;28;20176;-46
2023/06/14 11:30:42;;;;;;;6.40;3.33;;;24.60;63.40;;;;;;5010490;28;20117;-47
2023/06/14 11:33:11;;;;;;;4.35;3.25;;;24.60;63.60;;;;;;5015578;28;20044;-50
2023/06/14 11:35:37;;;;;;;5.28;3.42;;;24.60;63.60;;;;;;5008018;28;20041;-48
2023/06/14 11:38:02;;;;;;;5.13;3.33;;;24.60;63.70;;;;;;5020161;28;20030;-49
2023/06/14 11:40:28;;;;;;;5.63;3.30;;;24.60;63.60;;;;;;5014010;28;20034;-51
2023/06/14 11:43:01;;;;;;;3.65;3.17;;;24.60;63.70;;;;;;5014935;28;20030;-51
2023/06/14 11:45:27;;;;;;;4.25;3.15;;;24.60;63.70;;;;;;5010929;28;20014;-50
2023/06/14 11:47:58;;;;;;;4.72;3.35;;;24.70;63.80;;;;;;5024303;28;20060;-51
2023/06/14 11:50:24;;;;;;;6.10;3.72;;;24.70;63.80;;;;;;5020188;28;20121;-46
2023/06/14 11:52:57;;;;;;;4.70;2.95;;;24.70;63.90;;;;;;5002400;28;20128;-52
2023/06/14 11:55:23;;;;;;;3.80;3.25;;;24.70;63.60;;;;;;5001126;28;20506;-51
2023/06/14 11:57:49;;;;;;;4.50;3.35;;;24.70;63.70;;;;;;5009245;28;20018;-46
2023/06/14 12:00:16;;;;;;;4.10;3.30;;;24.80;63.70;;;;;;5003042;28;20492;-51
2023/06/14 12:02:42;;;;;;;4.03;3.15;;;24.80;63.30;;;;;;5004347;28;20022;-53
2023/06/14 12:05:11;;;;;;;6.60;3.50;;;24.80;63.20;;;;;;5009564;28;20026;-49
2023/06/14 12:07:39;;;;;;;4.55;3.17;;;24.80;63.20;;;;;;5011527;28;20034;-48
2023/06/14 12:10:07;;;;;;;4.05;3.05;;;24.80;63.20;;;;;;5015386;28;20038;-47
2023/06/14 12:12:39;;;;;;;5.18;3.40;;;24.80;63.10;;;;;;5018993;28;20063;-46
2023/06/14 12:15:07;;;;;;;6.20;3.30;;;24.80;63.00;;;;;;5001459;28;20088;-46
2023/06/14 12:17:34;;;;;;;4.32;3.28;;;24.80;63.00;;;;;;5003720;28;20022;-50
2023/06/14 12:20:13;;;;;;;3.58;2.97;;;24.80;63.10;;;;;;5004794;28;20144;-46
2023/06/14 12:23:01;;;;;;;3.63;3.13;;;24.80;63.20;;;;;;5008231;28;21171;-51
2023/06/14 12:25:31;;;;;;;4.68;3.40;;;24.80;63.10;;;;;;5015784;28;20033;-48
2023/06/14 12:28:07;;;;;;;6.32;3.97;;;24.80;62.90;;;;;;5026325;28;20093;-48
2023/06/14 12:30:35;;;;;;;6.07;3.63;;;24.80;62.90;;;;;;5006025;28;20584;-47
2023/06/14 12:33:01;;;;;;;3.90;3.10;;;24.80;63.00;;;;;;5010670;28;20049;-47
2023/06/14 12:35:27;;;;;;;5.25;3.35;;;24.80;63.20;;;;;;5011846;28;20042;-50
2023/06/14 12:37:53;;;;;;;4.13;3.20;;;24.80;63.60;;;;;;5010479;28;20052;-49
2023/06/14 12:40:19;;;;;;;9.60;3.40;;;24.80;63.80;;;;;;5007027;28;20491;-48
2023/06/14 12:42:46;;;;;;;5.32;3.35;;;24.80;63.80;;;;;;5005090;28;20034;-50
2023/06/14 12:45:12;;;;;;;5.22;3.22;;;24.80;63.80;;;;;;5005811;28;20082;-49
2023/06/14 12:47:38;;;;;;;4.40;3.13;;;24.80;63.80;;;;;;5003690;28;20128;-47
2023/06/14 12:50:04;;;;;;;3.85;3.28;;;24.80;63.90;;;;;;5016405;28;20041;-49
2023/06/14 12:52:30;;;;;;;4.80;3.30;;;24.80;64.00;;;;;;5022392;28;20056;-46
2023/06/14 12:54:55;;;;;;;3.28;2.97;;;24.80;63.90;;;;;;5015972;28;20029;-49
2023/06/14 12:57:21;;;;;;;4.50;3.22;;;24.80;63.80;;;;;;5022874;28;20073;-46